Fort Bridger, Wyoming
Current Conditions -  °F | °C
As of 10:35 AM on Thursday 23 Oct 2014 (Local Time) from KFBR Reporting Station
Clear Clear  
Wind Chill: 56°   Ceiling: Unl
Heat Index: 56°   Visibility: NA
Dew Point: 26°   Wind: 3mph
Humidity: 32%   Direction: 230°SW
Pressure: 30.26"   Gusts: NA
Location:  41.32°N, 110.39°W
Report Text: KFBR 231635Z AUTO 23003KT CLR 13/M03 A3026 RMK AO2 T01311032 PWINO
Loading
Personal Weather Stations






























Interactive Weather Map
Tropical Storm Tracking
New forecast layout! Learn more

10-Day Weather Forecast

Advertisements
Track Severe Weather on mobile